createdAt,value
2019-01-13T00:02:28.366Z,20.60
2019-01-13T00:04:57.601Z,20.17
2019-01-13T00:07:26.824Z,19.82
2019-01-13T00:09:57.173Z,19.70
2019-01-13T00:12:26.770Z,19.45
2019-01-13T00:14:55.994Z,19.48
2019-01-13T00:17:27.724Z,20.65
2019-01-13T00:19:57.160Z,20.43
2019-01-13T00:22:26.640Z,20.75
2019-01-13T00:25:00.786Z,22.87
2019-01-13T00:27:30.958Z,23.07
2019-01-13T00:30:01.892Z,22.20
2019-01-13T00:32:31.065Z,22.55
2019-01-13T00:35:02.590Z,23.18
2019-01-13T00:37:33.270Z,23.98
2019-01-13T00:40:04.455Z,25.45
2019-01-13T00:42:33.966Z,23.32
2019-01-13T00:45:05.078Z,24.40
2019-01-13T00:47:34.318Z,21.45
2019-01-13T00:50:03.876Z,22.13
2019-01-13T00:52:33.082Z,24.05
2019-01-13T00:55:02.231Z,23.73
2019-01-13T00:57:31.439Z,24.65
2019-01-13T01:00:00.589Z,25.35
2019-01-13T01:02:29.735Z,23.90
2019-01-13T01:04:58.949Z,24.75
2019-01-13T01:07:28.153Z,23.73
2019-01-13T01:09:57.297Z,23.90
2019-01-13T01:12:26.440Z,22.50
2019-01-13T01:14:55.647Z,24.30
2019-01-13T01:17:24.820Z,23.77
2019-01-13T01:19:54.525Z,23.15
2019-01-13T01:22:23.752Z,24.43
2019-01-13T01:24:52.957Z,23.35
2019-01-13T01:27:22.123Z,23.05
2019-01-13T01:29:51.264Z,25.27
2019-01-13T01:32:20.423Z,24.00
2019-01-13T01:34:49.850Z,23.42
2019-01-13T01:37:19.694Z,22.62
2019-01-13T01:39:48.896Z,24.05
2019-01-13T01:42:18.072Z,24.43
2019-01-13T01:44:47.350Z,25.23
2019-01-13T01:47:16.600Z,25.15
2019-01-13T01:49:45.904Z,22.85
2019-01-13T01:52:15.197Z,23.90
2019-01-13T01:54:44.312Z,23.62
2019-01-13T01:57:15.990Z,27.95
2019-01-13T01:59:45.702Z,23.77
2019-01-13T02:02:15.009Z,24.30
2019-01-13T02:04:44.241Z,24.23
2019-01-13T02:07:13.399Z,23.77
2019-01-13T02:09:42.789Z,26.52
2019-01-13T02:12:12.029Z,23.47
2019-01-13T02:14:41.203Z,23.30
2019-01-13T02:17:10.359Z,23.80
2019-01-13T02:19:39.591Z,23.50
2019-01-13T02:22:08.786Z,22.00
2019-01-13T02:24:37.985Z,23.05
2019-01-13T02:27:07.597Z,21.00
2019-01-13T02:29:36.893Z,21.70
2019-01-13T02:32:06.062Z,22.20
2019-01-13T02:34:35.210Z,22.82
2019-01-13T02:37:04.363Z,21.50
2019-01-13T02:39:33.607Z,20.88
2019-01-13T02:42:02.717Z,21.60
2019-01-13T02:44:31.940Z,20.23
2019-01-13T02:47:01.110Z,22.32
2019-01-13T02:49:30.235Z,20.65
2019-01-13T02:51:59.519Z,20.65
2019-01-13T02:54:28.690Z,20.77
2019-01-13T02:56:57.837Z,21.30
2019-01-13T02:59:27.103Z,21.45
2019-01-13T03:01:56.250Z,22.10
2019-01-13T03:04:25.496Z,20.20
2019-01-13T03:06:54.660Z,21.73
2019-01-13T03:09:23.803Z,20.82
2019-01-13T03:11:53.215Z,22.07
2019-01-13T03:14:22.385Z,19.32
2019-01-13T03:16:51.625Z,20.77
2019-01-13T03:19:20.798Z,18.17
2019-01-13T03:21:49.994Z,19.30
2019-01-13T03:24:19.242Z,19.50
2019-01-13T03:26:48.338Z,19.50
2019-01-13T03:29:17.492Z,18.05
2019-01-13T03:31:46.723Z,18.42
2019-01-13T03:34:15.880Z,18.40
2019-01-13T03:36:45.103Z,17.25
2019-01-13T03:39:14.402Z,17.62
2019-01-13T03:41:43.681Z,15.93
2019-01-13T03:44:12.839Z,16.45
2019-01-13T03:46:42.116Z,15.70
2019-01-13T03:49:11.475Z,16.07
2019-01-13T03:51:40.593Z,14.73
2019-01-13T03:54:10.050Z,15.90
2019-01-13T03:56:39.302Z,15.18
2019-01-13T03:59:09.828Z,13.83
2019-01-13T04:01:39.060Z,14.07
2019-01-13T04:04:08.317Z,14.45
2019-01-13T04:06:37.546Z,14.78
2019-01-13T04:09:08.701Z,15.63
2019-01-13T04:11:37.868Z,15.20
2019-01-13T04:14:07.074Z,15.05
2019-01-13T04:16:36.441Z,13.75
2019-01-13T04:19:05.605Z,15.78
2019-01-13T04:21:34.766Z,15.53
2019-01-13T04:24:04.046Z,13.25
2019-01-13T04:26:33.232Z,14.70
2019-01-13T04:29:02.444Z,15.90
2019-01-13T04:31:31.633Z,16.50
2019-01-13T04:34:01.374Z,15.43
2019-01-13T04:36:30.602Z,16.12
2019-01-13T04:38:59.830Z,15.25
2019-01-13T04:41:29.046Z,14.83
2019-01-13T04:43:59.565Z,14.15
2019-01-13T04:46:31.736Z,14.68
2019-01-13T04:49:01.036Z,13.50
2019-01-13T04:51:30.238Z,14.85
2019-01-13T04:53:59.408Z,14.15
2019-01-13T04:56:28.545Z,13.95
2019-01-13T04:58:57.763Z,14.80
2019-01-13T05:01:34.173Z,13.68
2019-01-13T05:03:57.854Z,13.35
2019-01-13T05:06:27.123Z,15.28
2019-01-13T05:08:56.322Z,14.40
2019-01-13T05:11:25.500Z,13.80
2019-01-13T05:13:54.625Z,13.80
2019-01-13T05:16:24.907Z,14.18
2019-01-13T05:18:54.053Z,14.38
2019-01-13T05:21:23.233Z,13.90
2019-01-13T05:23:52.525Z,14.80
2019-01-13T05:26:21.711Z,15.85
2019-01-13T05:28:50.954Z,14.40
2019-01-13T05:31:20.253Z,13.58
2019-01-13T05:33:49.456Z,14.83
2019-01-13T05:36:18.610Z,14.05
2019-01-13T05:38:47.750Z,14.53
2019-01-13T05:41:16.983Z,13.00
2019-01-13T05:43:46.140Z,14.50
2019-01-13T05:46:15.301Z,14.75
2019-01-13T05:48:44.491Z,12.07
2019-01-13T05:51:13.783Z,12.82
2019-01-13T05:53:43.029Z,12.55
2019-01-13T05:56:12.231Z,12.10
2019-01-13T05:58:41.476Z,12.50
2019-01-13T06:01:10.601Z,11.97
2019-01-13T06:03:39.975Z,13.30
2019-01-13T06:06:09.189Z,12.25
2019-01-13T06:08:38.439Z,11.73
2019-01-13T06:11:07.691Z,13.00
2019-01-13T06:13:36.882Z,11.65
2019-01-13T06:16:06.103Z,13.48
2019-01-13T06:18:35.372Z,14.55
2019-01-13T06:21:04.573Z,13.13
2019-01-13T06:23:33.777Z,13.00
2019-01-13T06:26:02.904Z,14.03
2019-01-13T06:28:32.077Z,13.95
2019-01-13T06:31:01.251Z,15.18
2019-01-13T06:33:30.387Z,14.13
2019-01-13T06:35:59.627Z,13.50
2019-01-13T06:38:28.857Z,14.47
2019-01-13T06:40:58.170Z,13.03
2019-01-13T06:43:27.355Z,13.70
2019-01-13T06:45:56.485Z,14.18
2019-01-13T06:48:25.692Z,12.73
2019-01-13T06:50:54.880Z,12.47
2019-01-13T06:53:24.062Z,12.85
2019-01-13T06:55:53.220Z,12.98
2019-01-13T06:58:22.411Z,12.75
2019-01-13T07:00:51.581Z,13.30
2019-01-13T07:03:21.364Z,12.80
2019-01-13T07:05:50.607Z,11.97
2019-01-13T07:08:19.734Z,12.05
2019-01-13T07:10:48.950Z,12.18
2019-01-13T07:13:18.230Z,10.63
2019-01-13T07:15:47.394Z,10.93
2019-01-13T07:18:16.525Z,14.55
2019-01-13T07:20:45.684Z,12.78
2019-01-13T07:23:14.944Z,10.60
2019-01-13T07:25:44.494Z,10.00
2019-01-13T07:28:13.729Z,10.80
2019-01-13T07:30:42.986Z,11.03
2019-01-13T07:33:12.192Z,10.45
2019-01-13T07:35:41.359Z,8.90
2019-01-13T07:38:10.586Z,8.65
2019-01-13T07:40:40.147Z,9.08
2019-01-13T07:43:09.312Z,8.68
2019-01-13T07:45:38.502Z,9.50
2019-01-13T07:48:07.726Z,8.35
2019-01-13T07:50:36.935Z,8.53
2019-01-13T07:53:08.446Z,8.88
2019-01-13T07:55:37.603Z,8.13
2019-01-13T07:58:06.861Z,9.00
2019-01-13T08:00:36.309Z,8.73
2019-01-13T08:03:06.578Z,8.10
2019-01-13T08:05:35.710Z,7.87
2019-01-13T08:08:05.033Z,7.62
2019-01-13T08:10:34.268Z,7.78
2019-01-13T08:13:03.539Z,6.78
2019-01-13T08:15:32.981Z,9.23
2019-01-13T08:18:02.201Z,7.65
2019-01-13T08:20:34.649Z,5.95
2019-01-13T08:23:04.054Z,6.42
2019-01-13T08:25:33.341Z,6.50
2019-01-13T08:28:02.590Z,8.45
2019-01-13T08:30:31.829Z,7.60
2019-01-13T08:33:01.048Z,6.80
2019-01-13T08:35:30.318Z,6.85
2019-01-13T08:37:59.514Z,6.97
2019-01-13T08:40:28.731Z,7.12
2019-01-13T08:42:59.729Z,6.85
2019-01-13T08:45:31.389Z,7.40
2019-01-13T08:48:00.797Z,7.00
2019-01-13T08:50:30.084Z,7.10
2019-01-13T08:52:59.365Z,8.08
2019-01-13T08:55:29.749Z,7.20
2019-01-13T08:57:59.160Z,7.90
2019-01-13T09:00:35.634Z,8.13
2019-01-13T09:03:06.663Z,7.87
2019-01-13T09:05:35.895Z,7.70
2019-01-13T09:08:05.795Z,8.10
2019-01-13T09:10:34.873Z,9.20
2019-01-13T09:13:05.188Z,8.35
2019-01-13T09:15:35.311Z,8.80
2019-01-13T09:18:04.979Z,9.45
2019-01-13T09:20:34.666Z,9.38
2019-01-13T09:23:05.787Z,9.73
2019-01-13T09:25:38.165Z,10.20
2019-01-13T09:28:08.641Z,10.58
2019-01-13T09:30:37.921Z,9.38
2019-01-13T09:33:07.252Z,10.45
2019-01-13T09:35:36.452Z,11.38
2019-01-13T09:38:06.847Z,10.98
2019-01-13T09:40:36.427Z,9.40
2019-01-13T09:43:06.063Z,11.08
2019-01-13T09:45:35.549Z,10.93
2019-01-13T09:48:06.137Z,12.30
2019-01-13T09:50:35.421Z,11.20
2019-01-13T09:53:12.028Z,11.55
2019-01-13T09:55:41.510Z,12.50
2019-01-13T09:58:11.270Z,12.07
2019-01-13T10:00:41.728Z,13.50
2019-01-13T10:03:13.908Z,13.75
2019-01-13T10:08:45.238Z,15.63
2019-01-13T10:11:17.984Z,15.58
2019-01-13T10:13:47.221Z,15.70
2019-01-13T10:16:16.692Z,15.20
2019-01-13T10:18:46.167Z,15.45
2019-01-13T10:21:15.662Z,18.02
2019-01-13T10:23:47.803Z,16.40
2019-01-13T10:26:17.158Z,16.90
2019-01-13T10:28:46.512Z,18.48
2019-01-13T10:31:15.768Z,20.20
2019-01-13T10:33:44.974Z,19.48
2019-01-13T10:36:14.416Z,19.60
2019-01-13T10:38:44.294Z,20.10
2019-01-13T10:41:13.837Z,22.00
2019-01-13T10:43:43.036Z,21.45
2019-01-13T10:46:12.250Z,22.30
2019-01-13T10:48:41.590Z,23.90
2019-01-13T10:51:11.305Z,23.10
2019-01-13T10:53:40.720Z,22.98
2019-01-13T10:56:11.852Z,23.07
2019-01-13T10:58:42.841Z,22.67
2019-01-13T11:01:12.773Z,22.42
2019-01-13T11:03:42.399Z,22.70
2019-01-13T11:06:12.052Z,21.93
2019-01-13T11:08:41.624Z,21.27
2019-01-13T11:14:12.231Z,20.90
2019-01-13T11:16:41.557Z,21.60
2019-01-13T11:19:11.541Z,20.80
2019-01-13T11:21:41.050Z,21.77
2019-01-13T11:24:12.170Z,23.22
2019-01-13T11:26:41.462Z,20.90
2019-01-13T11:29:10.981Z,22.42
2019-01-13T11:31:40.930Z,23.00
2019-01-13T11:34:10.300Z,23.05
2019-01-13T11:36:39.615Z,22.07
2019-01-13T11:39:14.204Z,23.57
2019-01-13T11:41:43.717Z,22.67
2019-01-13T11:44:16.806Z,22.48
2019-01-13T11:46:47.234Z,20.48
2019-01-13T11:49:16.860Z,20.43
2019-01-13T11:51:46.399Z,20.43
2019-01-13T11:54:15.704Z,20.50
2019-01-13T11:56:47.953Z,21.48
2019-01-13T11:59:18.518Z,18.02
2019-01-13T12:01:49.472Z,19.42
2019-01-13T12:04:18.928Z,18.98
2019-01-13T12:06:51.335Z,19.30
2019-01-13T12:09:20.791Z,18.27
2019-01-13T12:11:50.027Z,16.42
2019-01-13T12:14:20.803Z,16.55
2019-01-13T12:16:49.985Z,17.02
2019-01-13T12:19:19.301Z,16.37
2019-01-13T12:21:52.996Z,14.80
2019-01-13T12:24:23.236Z,14.03
2019-01-13T12:26:52.534Z,13.60
2019-01-13T12:29:21.753Z,13.88
2019-01-13T12:31:51.003Z,13.65
2019-01-13T12:34:26.067Z,13.08
2019-01-13T12:36:54.304Z,12.45
2019-01-13T12:39:23.581Z,11.30
2019-01-13T12:41:53.032Z,12.00
2019-01-13T12:44:24.585Z,10.48
2019-01-13T12:46:53.904Z,11.33
2019-01-13T12:49:23.070Z,10.50
2019-01-13T12:51:52.267Z,10.40
2019-01-13T12:54:23.872Z,9.95
2019-01-13T12:56:53.284Z,9.28
2019-01-13T12:59:22.523Z,8.78
2019-01-13T13:01:51.760Z,8.60
2019-01-13T13:04:20.931Z,8.45
2019-01-13T13:06:50.236Z,9.48
2019-01-13T13:09:19.515Z,7.83
2019-01-13T13:11:50.778Z,8.35
2019-01-13T13:14:21.840Z,8.05
2019-01-13T13:16:53.820Z,7.60
2019-01-13T13:19:29.832Z,7.90
2019-01-13T13:21:59.612Z,6.55
2019-01-13T13:24:31.891Z,6.97
2019-01-13T13:27:01.184Z,7.55
2019-01-13T13:29:30.642Z,7.20
2019-01-13T13:32:01.134Z,7.12
2019-01-13T13:34:33.582Z,6.35
2019-01-13T13:37:03.257Z,5.75
2019-01-13T13:39:34.829Z,6.17
2019-01-13T13:42:18.011Z,6.62
2019-01-13T13:44:50.156Z,6.70
2019-01-13T13:47:20.073Z,5.95
2019-01-13T13:49:49.311Z,6.00
2019-01-13T13:52:18.544Z,6.30
2019-01-13T13:54:47.786Z,6.05
2019-01-13T13:57:16.983Z,6.08
2019-01-13T13:59:52.449Z,5.15
2019-01-13T14:02:21.798Z,5.55
2019-01-13T14:04:53.339Z,5.72
2019-01-13T14:07:24.895Z,6.58
2019-01-13T14:09:57.741Z,5.58
2019-01-13T14:12:30.987Z,5.00
2019-01-13T14:15:00.186Z,5.40
2019-01-13T14:17:29.824Z,5.37
2019-01-13T14:19:59.044Z,5.40
2019-01-13T14:22:28.235Z,5.70
2019-01-13T14:25:00.161Z,5.65
2019-01-13T14:27:29.381Z,5.60
2019-01-13T14:29:58.621Z,5.40
2019-01-13T14:32:27.783Z,5.42
2019-01-13T14:34:59.354Z,5.65
2019-01-13T14:37:28.660Z,5.45
2019-01-13T14:39:57.867Z,6.35
2019-01-13T14:42:27.048Z,4.87
2019-01-13T14:44:58.894Z,6.05
2019-01-13T14:47:28.935Z,5.15
2019-01-13T14:49:58.154Z,5.60
2019-01-13T14:52:27.563Z,5.45
2019-01-13T14:54:57.329Z,5.42
2019-01-13T14:57:26.641Z,6.20
2019-01-13T14:59:55.879Z,5.35
2019-01-13T15:02:25.032Z,5.65
2019-01-13T15:04:54.328Z,6.10
2019-01-13T15:07:35.093Z,7.28
2019-01-13T15:10:06.065Z,6.70
2019-01-13T15:12:38.085Z,6.83
2019-01-13T15:15:08.924Z,7.15
2019-01-13T15:17:38.421Z,7.28
2019-01-13T15:20:18.056Z,7.28
2019-01-13T15:22:47.710Z,7.85
2019-01-13T15:25:20.274Z,8.70
2019-01-13T15:27:50.207Z,8.68
2019-01-13T15:30:22.465Z,8.58
2019-01-13T15:32:51.997Z,8.65
2019-01-13T15:35:21.224Z,9.53
2019-01-13T15:37:50.382Z,8.75
2019-01-13T15:40:20.247Z,9.90
2019-01-13T15:42:50.211Z,8.73
2019-01-13T15:45:19.465Z,9.55
2019-01-13T15:47:49.086Z,9.95
2019-01-13T15:50:20.900Z,11.10
2019-01-13T15:52:50.229Z,10.85
2019-01-13T15:55:19.667Z,11.43
2019-01-13T15:57:49.467Z,11.55
2019-01-13T16:00:21.476Z,13.10
2019-01-13T16:02:50.919Z,13.93
2019-01-13T16:05:20.794Z,14.35
2019-01-13T16:07:50.077Z,14.85
2019-01-13T16:10:22.736Z,14.20
2019-01-13T16:12:58.448Z,15.68
2019-01-13T16:15:34.370Z,15.93
2019-01-13T16:18:01.849Z,15.38
2019-01-13T16:20:42.256Z,14.70
2019-01-13T16:23:11.584Z,14.90
2019-01-13T16:25:43.147Z,13.15
2019-01-13T16:28:12.414Z,13.75
2019-01-13T16:30:41.666Z,12.95
2019-01-13T16:33:10.837Z,14.47
2019-01-13T16:35:40.290Z,13.28
2019-01-13T16:38:13.227Z,13.70
2019-01-13T16:40:43.001Z,13.10
2019-01-13T16:43:15.586Z,13.45
2019-01-13T16:45:44.867Z,12.20
2019-01-13T16:48:14.394Z,12.82
2019-01-13T16:50:45.288Z,12.55
2019-01-13T16:53:14.854Z,11.75
2019-01-13T16:55:45.098Z,11.60
2019-01-13T16:58:14.549Z,11.95
2019-01-13T17:00:45.133Z,15.05
2019-01-13T17:03:14.464Z,11.08
2019-01-13T17:05:44.165Z,11.95
2019-01-13T17:08:13.570Z,12.03
2019-01-13T17:10:43.014Z,12.82
2019-01-13T17:13:12.368Z,12.37
2019-01-13T17:15:41.679Z,11.45
2019-01-13T17:18:13.137Z,12.40
2019-01-13T17:20:52.896Z,12.23
2019-01-13T17:23:24.841Z,12.95
2019-01-13T17:25:56.524Z,12.18
2019-01-13T17:28:26.986Z,12.40
2019-01-13T17:31:00.232Z,11.40
2019-01-13T17:33:29.580Z,12.03
2019-01-13T17:35:58.912Z,12.35
2019-01-13T17:38:28.436Z,11.70
2019-01-13T17:40:57.830Z,11.90
2019-01-13T17:43:29.661Z,12.85
2019-01-13T17:46:01.076Z,10.03
2019-01-13T17:48:34.715Z,10.95
2019-01-13T17:51:17.940Z,11.90
2019-01-13T17:53:52.044Z,10.85
2019-01-13T17:56:25.264Z,9.80
2019-01-13T17:58:59.921Z,11.10
2019-01-13T18:01:33.733Z,11.63
2019-01-13T18:04:03.907Z,12.78
2019-01-13T18:06:33.975Z,12.15
2019-01-13T18:09:05.411Z,12.37
2019-01-13T18:11:35.177Z,11.45
2019-01-13T18:14:07.483Z,7.60
2019-01-13T18:16:48.148Z,5.65
2019-01-13T18:21:55.089Z,5.25
2019-01-13T18:24:27.623Z,5.70
2019-01-13T18:26:57.238Z,6.25
2019-01-13T18:29:26.843Z,5.00
2019-01-13T18:31:56.146Z,5.20
2019-01-13T18:34:25.642Z,4.33
2019-01-13T18:36:54.879Z,4.90
2019-01-13T18:39:28.448Z,4.10
2019-01-13T18:42:03.978Z,4.53
2019-01-13T18:44:34.707Z,4.55
2019-01-13T18:47:06.878Z,5.12
2019-01-13T18:49:36.186Z,5.50
2019-01-13T18:52:08.022Z,5.30
2019-01-13T18:54:37.312Z,5.53
2019-01-13T18:57:06.982Z,7.17
2019-01-13T18:59:39.270Z,5.90
2019-01-13T19:02:08.661Z,6.28
2019-01-13T19:04:37.898Z,7.30
2019-01-13T19:07:10.532Z,7.42
2019-01-13T19:09:43.692Z,6.78
2019-01-13T19:12:13.000Z,6.12
2019-01-13T19:14:49.404Z,6.15
2019-01-13T19:17:29.668Z,7.20
2019-01-13T19:20:19.866Z,6.10
2019-01-13T19:22:51.570Z,5.60
2019-01-13T19:25:32.109Z,2.95
2019-01-13T19:28:01.728Z,2.20
2019-01-13T19:30:32.800Z,2.90
2019-01-13T19:33:02.291Z,4.95
2019-01-13T19:35:33.053Z,3.62
2019-01-13T19:38:02.585Z,5.55
2019-01-13T19:40:32.269Z,2.35
2019-01-13T19:43:01.661Z,2.17
2019-01-13T19:45:31.126Z,4.70
2019-01-13T19:48:00.679Z,2.75
2019-01-13T19:50:29.846Z,3.58
2019-01-13T19:53:00.637Z,3.92
2019-01-13T19:55:32.705Z,13.35
2019-01-13T19:58:06.078Z,2.70
2019-01-13T20:00:37.049Z,7.40
2019-01-13T20:03:08.163Z,13.80
2019-01-13T20:05:41.628Z,3.10
2019-01-13T20:08:11.156Z,3.52
2019-01-13T20:10:44.388Z,4.20
2019-01-13T20:13:14.909Z,2.70
2019-01-13T20:15:44.209Z,2.60
2019-01-13T20:18:13.530Z,13.78
2019-01-13T20:20:43.240Z,3.02
2019-01-13T20:23:12.640Z,4.30
2019-01-13T20:25:44.356Z,6.83
2019-01-13T20:28:13.745Z,4.85
2019-01-13T20:30:45.919Z,4.40
2019-01-13T20:33:17.385Z,4.28
2019-01-13T20:35:46.872Z,7.92
2019-01-13T20:38:22.173Z,7.60
2019-01-13T20:40:51.897Z,17.07
2019-01-13T20:43:27.495Z,10.05
2019-01-13T20:45:58.323Z,9.55
2019-01-13T20:48:27.924Z,8.93
2019-01-13T20:50:59.794Z,8.30
2019-01-13T20:53:28.971Z,12.20
2019-01-13T20:55:59.405Z,5.15
2019-01-13T20:58:29.086Z,5.80
2019-01-13T21:01:01.906Z,8.08
2019-01-13T21:03:33.719Z,4.95
2019-01-13T21:06:03.097Z,4.28
2019-01-13T21:08:32.745Z,4.30
2019-01-13T21:11:02.266Z,5.67
2019-01-13T21:13:33.589Z,4.45
2019-01-13T21:16:07.337Z,4.10
2019-01-13T21:18:36.697Z,4.50
2019-01-13T21:21:06.656Z,5.05
2019-01-13T21:23:39.431Z,3.90
2019-01-13T21:26:11.198Z,3.65
2019-01-13T21:28:41.277Z,3.77
2019-01-13T21:31:12.051Z,3.45
2019-01-13T21:33:42.373Z,3.83
2019-01-13T21:36:15.391Z,5.08
2019-01-13T21:38:46.325Z,4.10
2019-01-13T21:41:16.566Z,3.92
2019-01-13T21:43:46.728Z,4.15
2019-01-13T21:46:20.481Z,4.85
2019-01-13T21:48:49.966Z,5.10
2019-01-13T21:51:20.356Z,4.20
2019-01-13T21:53:52.112Z,4.70
2019-01-13T21:56:21.677Z,6.50
2019-01-13T21:58:54.267Z,4.30
2019-01-13T22:01:24.446Z,5.55
2019-01-13T22:03:54.528Z,4.08
2019-01-13T22:06:24.900Z,4.10
2019-01-13T22:08:56.209Z,4.05
2019-01-13T22:11:25.882Z,3.95
2019-01-13T22:13:57.457Z,4.72
2019-01-13T22:16:26.825Z,3.62
2019-01-13T22:18:56.144Z,4.12
2019-01-13T22:21:25.504Z,4.10
2019-01-13T22:23:55.196Z,4.40
2019-01-13T22:26:27.078Z,4.05
2019-01-13T22:28:58.124Z,5.03
2019-01-13T22:31:27.556Z,4.62
2019-01-13T22:33:58.094Z,4.60
2019-01-13T22:36:27.352Z,4.83
2019-01-13T22:38:56.732Z,4.62
2019-01-13T22:41:26.776Z,3.37
2019-01-13T22:43:57.910Z,4.08
2019-01-13T22:46:27.106Z,4.65
2019-01-13T22:48:56.467Z,4.80
2019-01-13T22:51:25.804Z,5.80
2019-01-13T22:53:55.094Z,6.58
2019-01-13T22:56:24.647Z,4.28
2019-01-13T22:58:54.787Z,5.50
2019-01-13T23:01:36.942Z,5.33
2019-01-13T23:04:16.366Z,5.58
2019-01-13T23:06:46.018Z,3.60
2019-01-13T23:09:15.576Z,4.70
2019-01-13T23:11:47.046Z,3.75
2019-01-13T23:14:16.380Z,4.62
2019-01-13T23:16:45.872Z,4.67
2019-01-13T23:19:15.664Z,5.17
2019-01-13T23:21:47.888Z,4.78
2019-01-13T23:24:17.096Z,5.53
2019-01-13T23:26:46.308Z,6.53
2019-01-13T23:29:15.572Z,5.78
2019-01-13T23:31:44.854Z,4.87
2019-01-13T23:34:15.236Z,6.83
2019-01-13T23:36:44.950Z,5.72
2019-01-13T23:39:14.229Z,4.30
2019-01-13T23:41:43.497Z,4.97
2019-01-13T23:44:13.880Z,4.62
2019-01-13T23:46:43.064Z,5.62
2019-01-13T23:49:12.466Z,5.87
2019-01-13T23:51:41.780Z,4.80
2019-01-13T23:54:10.997Z,4.67
2019-01-13T23:56:40.247Z,3.95
2019-01-13T23:59:09.428Z,4.25
